Terminal Aerodrome Forecast
Issued by NWS

Home | Current Version | Previous Version | Text Only | Print | Product List | Glossary On
Versions: 1 2 3 4 5 6 7 8 9 10 11 12 13 14 15 16 17 18 19 20 21 22 23 24 25 26 27 28
000
FTUS45 KGJT 012136 AAA
TAFASE
TAF AMD
KASE 012136Z 0122/0218 18012G18KT P6SM VCSH BKN070 OVC090
     FM020000 14008KT P6SM VCSH OVC070
     FM020500 15006KT P6SM VCSH OVC035
     FM020700 15005KT P6SM OVC040=

USA.gov is the U.S. government's official web portal to all federal, state and local government web resources and services.